createdAt,value
2023-06-30T00:00:23.805Z,50.866753
2023-06-30T00:01:23.947Z,50.866718
2023-06-30T00:02:23.881Z,50.866764
2023-06-30T00:03:23.816Z,50.866726
2023-06-30T00:04:23.942Z,50.866745
2023-06-30T00:05:23.774Z,50.866730
2023-06-30T00:06:23.752Z,50.866753
2023-06-30T00:07:23.828Z,50.866776
2023-06-30T00:08:23.746Z,50.866798
2023-06-30T00:09:23.734Z,50.866768
2023-06-30T00:10:23.736Z,50.866783
2023-06-30T00:11:23.714Z,50.866764
2023-06-30T00:12:23.731Z,50.866795
2023-06-30T00:13:23.692Z,50.866802
2023-06-30T00:14:23.694Z,50.866768
2023-06-30T00:15:23.686Z,50.866806
2023-06-30T00:16:23.819Z,50.866787
2023-06-30T00:17:23.904Z,50.866817
2023-06-30T00:18:23.656Z,50.866806
2023-06-30T00:33:14.200Z,50.866783
2023-06-30T00:34:14.185Z,50.866756
2023-06-30T00:35:14.168Z,50.866768
2023-06-30T00:36:14.192Z,50.866768
2023-06-30T00:37:14.179Z,50.866714
2023-06-30T00:38:14.184Z,50.866711
2023-06-30T00:39:14.163Z,50.866768
2023-06-30T00:40:14.133Z,50.866703
2023-06-30T00:41:14.144Z,50.866745
2023-06-30T00:42:14.117Z,50.866756
2023-06-30T00:43:14.116Z,50.866768
2023-06-30T00:44:14.121Z,50.866741
2023-06-30T00:45:14.101Z,50.866749
2023-06-30T00:46:14.099Z,50.866783
2023-06-30T00:47:14.143Z,50.866772
2023-06-30T00:48:14.089Z,50.866779
2023-06-30T00:49:14.064Z,50.866760
2023-06-30T00:50:14.045Z,50.866795
2023-06-30T00:51:14.058Z,50.866802
2023-06-30T00:52:14.062Z,50.866806
2023-06-30T00:53:14.055Z,50.866791
2023-06-30T00:54:14.018Z,50.866844
2023-06-30T00:55:14.021Z,50.866791
2023-06-30T00:56:14.012Z,50.866772
2023-06-30T00:57:14.001Z,50.866772
2023-06-30T00:58:14.006Z,50.866806
2023-06-30T00:59:13.983Z,50.866795
2023-06-30T01:00:13.980Z,50.866795
2023-06-30T01:01:13.966Z,50.866791
2023-06-30T01:02:13.960Z,50.866840
2023-06-30T01:03:14.152Z,50.866776
2023-06-30T01:04:13.982Z,50.866802
2023-06-30T01:05:13.937Z,50.866760
2023-06-30T01:06:14.644Z,50.866798
2023-06-30T01:07:13.973Z,50.866859
2023-06-30T01:08:13.914Z,50.866856
2023-06-30T01:09:13.909Z,50.866829
2023-06-30T01:10:13.894Z,50.866776
2023-06-30T01:11:13.874Z,50.866806
2023-06-30T01:12:13.883Z,50.866840
2023-06-30T01:13:13.884Z,50.866890
2023-06-30T01:14:13.864Z,50.866821
2023-06-30T01:15:13.845Z,50.866764
2023-06-30T01:16:13.866Z,50.866737
2023-06-30T01:17:13.834Z,50.866703
2023-06-30T01:18:13.836Z,50.866776
2023-06-30T01:19:13.828Z,50.866749
2023-06-30T01:20:13.808Z,50.866707
2023-06-30T01:21:13.807Z,50.866692
2023-06-30T01:22:13.820Z,50.866600
2023-06-30T01:23:13.792Z,50.866707
2023-06-30T01:24:13.773Z,50.866749
2023-06-30T01:25:13.758Z,50.866806
2023-06-30T01:26:13.828Z,50.866814
2023-06-30T01:27:13.769Z,50.866760
2023-06-30T01:28:13.731Z,50.866787
2023-06-30T01:29:14.827Z,50.866722
2023-06-30T01:30:13.738Z,50.866772
2023-06-30T01:31:13.785Z,50.866722
2023-06-30T01:32:13.696Z,50.866734
2023-06-30T01:33:13.702Z,50.866768
2023-06-30T01:34:13.692Z,50.866810
2023-06-30T01:35:13.684Z,50.866791
2023-06-30T01:36:14.672Z,50.866817
2023-06-30T01:37:13.667Z,50.866756
2023-06-30T01:38:13.661Z,50.866817
2023-06-30T01:39:13.639Z,50.866821
2023-06-30T01:40:13.659Z,50.866768
2023-06-30T01:41:14.166Z,50.866756
2023-06-30T01:42:13.648Z,50.866764
2023-06-30T01:43:13.665Z,50.866772
2023-06-30T01:44:13.618Z,50.866802
2023-06-30T01:45:13.640Z,50.866802
2023-06-30T01:46:13.615Z,50.866753
2023-06-30T01:47:13.590Z,50.866772
2023-06-30T01:48:13.576Z,50.866768
2023-06-30T01:49:13.579Z,50.866764
2023-06-30T01:50:13.555Z,50.866764
2023-06-30T01:51:13.559Z,50.866768
2023-06-30T01:52:13.546Z,50.866768
2023-06-30T01:53:13.536Z,50.866756
2023-06-30T01:54:13.534Z,50.866783
2023-06-30T01:55:13.520Z,50.866760
2023-06-30T01:56:13.520Z,50.866714
2023-06-30T01:57:14.166Z,50.866718
2023-06-30T01:58:13.506Z,50.866711
2023-06-30T01:59:13.492Z,50.866726
2023-06-30T02:00:13.500Z,50.866722
2023-06-30T02:01:13.515Z,50.866741
2023-06-30T02:02:13.458Z,50.866791
2023-06-30T02:03:13.600Z,50.866756
2023-06-30T02:04:13.441Z,50.866753
2023-06-30T02:05:13.485Z,50.866779
2023-06-30T02:06:13.434Z,50.866768
2023-06-30T02:07:13.455Z,50.866699
2023-06-30T02:08:13.418Z,50.866749
2023-06-30T02:09:13.619Z,50.866722
2023-06-30T02:10:13.425Z,50.866810
2023-06-30T02:11:13.395Z,50.866783
2023-06-30T02:12:13.414Z,50.866776
2023-06-30T02:13:13.396Z,50.866772
2023-06-30T02:14:13.374Z,50.866726
2023-06-30T02:15:13.367Z,50.866730
2023-06-30T02:16:13.408Z,50.866783
2023-06-30T02:17:13.428Z,50.866741
2023-06-30T02:18:13.355Z,50.866764
2023-06-30T02:19:13.333Z,50.866734
2023-06-30T02:20:13.329Z,50.866791
2023-06-30T02:21:13.315Z,50.866768
2023-06-30T02:22:13.299Z,50.866833
2023-06-30T02:23:13.306Z,50.866821
2023-06-30T02:24:13.294Z,50.866776
2023-06-30T02:25:13.273Z,50.866749
2023-06-30T02:26:14.115Z,50.866737
2023-06-30T02:27:13.267Z,50.866783
2023-06-30T02:28:13.282Z,50.866779
2023-06-30T02:29:13.255Z,50.866673
2023-06-30T02:30:13.250Z,50.866707
2023-06-30T02:31:13.273Z,50.866779
2023-06-30T02:32:13.252Z,50.866783
2023-06-30T02:33:13.238Z,50.866745
2023-06-30T02:34:13.214Z,50.866806
2023-06-30T02:35:13.263Z,50.866833
2023-06-30T02:36:13.188Z,50.866825
2023-06-30T02:37:13.190Z,50.866806
2023-06-30T02:38:13.176Z,50.866840
2023-06-30T02:39:13.186Z,50.866798
2023-06-30T02:40:13.153Z,50.866764
2023-06-30T02:41:13.158Z,50.866772
2023-06-30T02:42:13.149Z,50.866791
2023-06-30T02:43:13.142Z,50.866806
2023-06-30T02:44:14.097Z,50.866783
2023-06-30T02:45:13.132Z,50.866772
2023-06-30T02:46:13.181Z,50.866806
2023-06-30T02:47:13.099Z,50.866825
2023-06-30T02:48:13.099Z,50.866856
2023-06-30T02:49:13.087Z,50.866756
2023-06-30T02:50:13.072Z,50.866814
2023-06-30T02:51:13.075Z,50.866848
2023-06-30T02:52:13.055Z,50.866848
2023-06-30T02:53:13.064Z,50.866852
2023-06-30T02:54:13.034Z,50.866795
2023-06-30T02:55:13.044Z,50.866833
2023-06-30T02:56:13.026Z,50.866856
2023-06-30T02:57:13.026Z,50.866749
2023-06-30T02:58:13.085Z,50.866753
2023-06-30T02:59:12.994Z,50.866837
2023-06-30T03:00:12.994Z,50.866810
2023-06-30T03:01:13.113Z,50.866760
2023-06-30T03:02:13.088Z,50.866772
2023-06-30T03:03:12.998Z,50.866756
2023-06-30T03:04:13.003Z,50.866734
2023-06-30T03:05:12.957Z,50.866760
2023-06-30T03:06:12.937Z,50.866741
2023-06-30T03:07:12.995Z,50.866726
2023-06-30T03:08:12.954Z,50.866718
2023-06-30T03:09:12.925Z,50.866741
2023-06-30T03:10:12.910Z,50.866669
2023-06-30T03:11:12.906Z,50.866673
2023-06-30T03:12:12.888Z,50.866756
2023-06-30T03:13:12.897Z,50.866699
2023-06-30T03:14:12.888Z,50.866779
2023-06-30T03:15:12.883Z,50.866810
2023-06-30T03:16:12.861Z,50.866753
2023-06-30T03:17:12.897Z,50.866764
2023-06-30T03:18:12.854Z,50.866821
2023-06-30T03:19:12.831Z,50.866821
2023-06-30T03:20:13.067Z,50.866837
2023-06-30T03:21:12.815Z,50.866856
2023-06-30T03:22:12.826Z,50.866871
2023-06-30T03:23:12.802Z,50.866898
2023-06-30T03:24:12.799Z,50.866840
2023-06-30T03:25:12.786Z,50.866844
2023-06-30T03:26:12.770Z,50.866867
2023-06-30T03:27:12.781Z,50.867023
2023-06-30T03:28:12.783Z,50.867161
2023-06-30T03:29:12.772Z,50.867344
2023-06-30T03:30:12.750Z,50.867390
2023-06-30T03:31:12.780Z,50.867161
2023-06-30T03:32:12.739Z,50.866997
2023-06-30T03:33:12.729Z,50.866859
2023-06-30T03:34:12.722Z,50.866821
2023-06-30T03:35:12.711Z,50.866825
2023-06-30T03:36:12.707Z,50.866749
2023-06-30T03:37:12.701Z,50.866695
2023-06-30T03:38:12.690Z,50.866627
2023-06-30T03:39:12.680Z,50.866772
2023-06-30T03:40:12.666Z,50.866711
2023-06-30T03:41:12.702Z,50.866703
2023-06-30T03:42:12.651Z,50.866707
2023-06-30T03:43:12.645Z,50.866707
2023-06-30T03:44:12.661Z,50.866650
2023-06-30T03:45:12.663Z,50.866753
2023-06-30T03:46:12.728Z,50.866718
2023-06-30T03:47:12.607Z,50.866695
2023-06-30T03:48:12.599Z,50.866657
2023-06-30T03:49:13.112Z,50.866627
2023-06-30T03:50:12.606Z,50.866665
2023-06-30T03:51:13.585Z,50.866673
2023-06-30T03:52:12.579Z,50.866673
2023-06-30T03:53:12.565Z,50.866661
2023-06-30T03:54:12.573Z,50.866680
2023-06-30T03:55:12.543Z,50.866741
2023-06-30T03:56:12.530Z,50.866768
2023-06-30T03:57:12.535Z,50.866802
2023-06-30T03:58:12.534Z,50.866730
2023-06-30T03:59:12.545Z,50.866707
2023-06-30T04:00:12.501Z,50.866695
2023-06-30T04:01:13.512Z,50.866646
2023-06-30T04:02:12.493Z,50.866692
2023-06-30T04:03:12.599Z,50.866680
2023-06-30T04:04:12.646Z,50.866726
2023-06-30T04:05:12.502Z,50.866730
2023-06-30T04:06:12.500Z,50.866745
2023-06-30T04:07:12.563Z,50.866650
2023-06-30T04:08:12.520Z,50.866688
2023-06-30T04:09:12.447Z,50.866684
2023-06-30T04:10:12.438Z,50.866684
2023-06-30T04:11:12.419Z,50.866692
2023-06-30T04:12:12.445Z,50.866699
2023-06-30T04:13:12.406Z,50.866749
2023-06-30T04:14:12.422Z,50.866730
2023-06-30T04:15:12.395Z,50.866711
2023-06-30T04:16:12.402Z,50.866779
2023-06-30T04:17:12.403Z,50.866745
2023-06-30T04:18:12.366Z,50.866760
2023-06-30T04:19:12.705Z,50.866791
2023-06-30T04:20:12.355Z,50.866833
2023-06-30T04:21:12.344Z,50.866798
2023-06-30T04:22:12.335Z,50.866764
2023-06-30T04:23:12.330Z,50.866749
2023-06-30T04:24:12.323Z,50.866772
2023-06-30T04:25:12.338Z,50.866741
2023-06-30T04:26:12.333Z,50.866711
2023-06-30T04:27:12.341Z,50.866684
2023-06-30T04:28:12.291Z,50.866699
2023-06-30T04:29:13.146Z,50.866749
2023-06-30T04:30:12.254Z,50.866741
2023-06-30T04:31:13.161Z,50.866756
2023-06-30T04:32:13.210Z,50.866795
2023-06-30T04:33:12.258Z,50.866779
2023-06-30T04:34:12.230Z,50.866783
2023-06-30T04:35:12.235Z,50.866749
2023-06-30T04:36:12.251Z,50.866821
2023-06-30T04:37:12.220Z,50.866749
2023-06-30T04:38:12.206Z,50.866844
2023-06-30T04:39:13.155Z,50.866833
2023-06-30T04:40:12.204Z,50.866730
2023-06-30T04:41:12.177Z,50.866879
2023-06-30T04:42:12.260Z,50.866791
2023-06-30T04:43:13.145Z,50.866745
2023-06-30T04:44:12.157Z,50.866772
2023-06-30T04:45:12.162Z,50.866741
2023-06-30T04:46:12.209Z,50.866455
2023-06-30T04:47:12.148Z,50.866493
2023-06-30T04:48:12.225Z,50.866547
2023-06-30T04:49:12.130Z,50.866650
2023-06-30T04:50:12.649Z,50.866688
2023-06-30T04:51:12.101Z,50.866737
2023-06-30T04:52:12.093Z,50.866787
2023-06-30T04:53:12.117Z,50.866722
2023-06-30T04:54:12.090Z,50.866714
2023-06-30T04:55:12.069Z,50.866699
2023-06-30T04:56:12.065Z,50.866753
2023-06-30T04:57:12.651Z,50.866684
2023-06-30T04:58:12.720Z,50.866837
2023-06-30T04:59:12.032Z,50.866806
2023-06-30T05:00:12.039Z,50.866905
2023-06-30T05:01:12.058Z,50.866955
2023-06-30T05:02:12.007Z,50.866974
2023-06-30T05:03:12.131Z,50.866859
2023-06-30T05:04:11.998Z,50.866756
2023-06-30T05:05:11.984Z,50.866783
2023-06-30T05:06:12.660Z,50.866817
2023-06-30T05:07:11.973Z,50.866817
2023-06-30T05:08:11.959Z,50.866779
2023-06-30T05:09:11.994Z,50.866795
2023-06-30T05:10:11.942Z,50.866833
2023-06-30T05:11:11.938Z,50.866779
2023-06-30T05:12:11.930Z,50.866814
2023-06-30T05:13:11.916Z,50.866798
2023-06-30T05:14:11.930Z,50.866795
2023-06-30T05:15:11.922Z,50.866760
2023-06-30T05:16:11.925Z,50.866688
2023-06-30T05:17:12.814Z,50.866745
2023-06-30T05:18:11.971Z,50.866787
2023-06-30T05:19:12.741Z,50.866741
2023-06-30T05:20:11.883Z,50.866760
2023-06-30T05:21:11.904Z,50.866756
2023-06-30T05:22:11.851Z,50.866821
2023-06-30T05:23:11.884Z,50.866863
2023-06-30T05:24:11.837Z,50.866905
2023-06-30T05:25:12.619Z,50.866909
2023-06-30T05:26:11.809Z,50.866863
2023-06-30T05:27:11.853Z,50.866806
2023-06-30T05:28:11.834Z,50.866760
2023-06-30T05:29:11.831Z,50.866722
2023-06-30T05:30:11.851Z,50.866718
2023-06-30T05:31:12.697Z,50.866730
2023-06-30T05:32:11.785Z,50.866760
2023-06-30T05:33:11.762Z,50.866749
2023-06-30T05:34:11.762Z,50.866726
2023-06-30T05:35:11.765Z,50.866749
2023-06-30T05:36:11.735Z,50.866764
2023-06-30T05:37:11.744Z,50.866806
2023-06-30T05:38:11.717Z,50.866837
2023-06-30T05:39:11.723Z,50.866817
2023-06-30T05:40:11.722Z,50.866764
2023-06-30T05:41:11.708Z,50.866760
2023-06-30T05:42:11.688Z,50.866764
2023-06-30T05:43:11.675Z,50.866745
2023-06-30T05:44:11.685Z,50.866764
2023-06-30T05:45:11.647Z,50.866768
2023-06-30T05:46:11.725Z,50.866745
2023-06-30T05:47:11.642Z,50.866741
2023-06-30T05:48:11.641Z,50.866749
2023-06-30T05:49:11.685Z,50.866760
2023-06-30T05:50:11.626Z,50.866783
2023-06-30T05:51:11.651Z,50.866760
2023-06-30T05:52:11.599Z,50.866787
2023-06-30T05:53:11.595Z,50.866795
2023-06-30T05:54:11.585Z,50.866779
2023-06-30T05:55:11.566Z,50.866760
2023-06-30T05:56:12.250Z,50.866737
2023-06-30T05:57:11.557Z,50.866676
2023-06-30T05:58:11.551Z,50.866741
2023-06-30T05:59:11.595Z,50.866760
2023-06-30T06:00:11.538Z,50.866703
2023-06-30T06:01:11.527Z,50.866768
2023-06-30T06:02:11.525Z,50.866764
2023-06-30T06:03:11.841Z,50.866795
2023-06-30T06:04:11.862Z,50.866787
2023-06-30T06:05:12.326Z,50.866760
2023-06-30T06:06:11.490Z,50.866730
2023-06-30T06:07:11.538Z,50.866646
2023-06-30T06:08:11.479Z,50.866631
2023-06-30T06:09:11.465Z,50.866604
2023-06-30T06:10:11.460Z,50.866749
2023-06-30T06:11:11.474Z,50.866657
2023-06-30T06:12:11.448Z,50.866638
2023-06-30T06:13:11.496Z,50.866623
2023-06-30T06:14:11.492Z,50.866570
2023-06-30T06:15:11.421Z,50.866577
2023-06-30T06:16:12.231Z,50.866543
2023-06-30T06:17:11.445Z,50.866520
2023-06-30T06:18:11.443Z,50.866562
2023-06-30T06:19:11.412Z,50.866642
2023-06-30T06:20:11.407Z,50.866680
2023-06-30T06:21:11.369Z,50.866730
2023-06-30T06:22:11.385Z,50.866772
2023-06-30T06:23:11.370Z,50.866768
2023-06-30T06:24:12.257Z,50.866718
2023-06-30T06:25:11.361Z,50.866756
2023-06-30T06:26:12.251Z,50.866726
2023-06-30T06:27:11.335Z,50.866768
2023-06-30T06:28:11.314Z,50.866795
2023-06-30T06:29:11.317Z,50.866791
2023-06-30T06:30:11.293Z,50.866787
2023-06-30T06:31:11.345Z,50.866741
2023-06-30T06:32:11.290Z,50.866726
2023-06-30T06:33:11.293Z,50.866756
2023-06-30T06:34:11.268Z,50.866650
2023-06-30T06:35:11.263Z,50.866695
2023-06-30T06:36:11.254Z,50.866619
2023-06-30T06:37:11.271Z,50.866673
2023-06-30T06:38:11.253Z,50.866680
2023-06-30T06:39:11.229Z,50.866772
2023-06-30T06:40:11.231Z,50.866749
2023-06-30T06:41:11.218Z,50.866863
2023-06-30T06:42:11.197Z,50.866837
2023-06-30T06:43:11.205Z,50.866913
2023-06-30T06:44:11.751Z,50.866936
2023-06-30T06:45:12.192Z,50.866856
2023-06-30T06:46:11.203Z,50.866905
2023-06-30T06:47:11.197Z,50.866692
2023-06-30T06:48:11.155Z,50.866482
2023-06-30T06:49:11.171Z,50.866539
2023-06-30T06:50:11.141Z,50.866776
2023-06-30T06:51:11.126Z,50.866798
2023-06-30T06:52:11.128Z,50.866684
2023-06-30T06:53:11.133Z,50.866676
2023-06-30T06:54:11.109Z,50.866444
2023-06-30T06:55:11.128Z,50.866688
2023-06-30T06:56:11.110Z,50.866669
2023-06-30T06:57:11.104Z,50.866604
2023-06-30T06:58:11.088Z,50.866722
2023-06-30T06:59:11.067Z,50.866745
2023-06-30T07:00:11.062Z,50.866745
2023-06-30T07:01:12.065Z,50.866730
2023-06-30T07:02:11.239Z,50.866627
2023-06-30T07:03:11.085Z,50.866634
2023-06-30T07:04:11.058Z,50.866764
2023-06-30T07:05:11.022Z,50.866802
2023-06-30T07:06:11.002Z,50.866749
2023-06-30T07:07:11.056Z,50.866642
2023-06-30T07:08:11.001Z,50.866627
2023-06-30T07:09:10.989Z,50.866768
2023-06-30T07:10:11.001Z,50.866768
2023-06-30T07:11:10.969Z,50.866920
2023-06-30T07:12:10.965Z,50.866734
2023-06-30T07:13:10.949Z,50.866680
2023-06-30T07:14:10.962Z,50.866966
2023-06-30T07:15:10.940Z,50.866886
2023-06-30T07:16:10.948Z,50.866871
2023-06-30T07:17:10.928Z,50.866829
2023-06-30T07:18:11.107Z,50.866924
2023-06-30T07:19:10.910Z,50.867085
2023-06-30T07:20:10.915Z,50.866825
2023-06-30T07:21:10.878Z,50.867001
2023-06-30T07:22:10.884Z,50.867069
2023-06-30T07:23:10.875Z,50.866791
2023-06-30T07:24:10.869Z,50.866646
2023-06-30T07:25:10.848Z,50.866692
2023-06-30T07:26:10.862Z,50.866776
2023-06-30T07:27:10.908Z,50.866730
2023-06-30T07:28:10.849Z,50.866661
2023-06-30T07:29:10.824Z,50.866592
2023-06-30T07:30:10.827Z,50.866699
2023-06-30T07:31:10.900Z,50.866840
2023-06-30T07:32:11.701Z,50.866699
2023-06-30T07:33:10.795Z,50.866768
2023-06-30T07:34:10.790Z,50.866711
2023-06-30T07:35:10.788Z,50.866806
2023-06-30T07:36:10.780Z,50.866833
2023-06-30T07:37:10.748Z,50.866909
2023-06-30T07:38:10.754Z,50.866890
2023-06-30T07:39:10.737Z,50.866943
2023-06-30T07:40:16.429Z,50.866974
2023-06-30T07:41:12.977Z,50.866978
2023-06-30T07:42:10.719Z,50.866924
2023-06-30T07:43:10.709Z,50.866951
2023-06-30T07:44:10.709Z,50.867027
2023-06-30T07:45:10.729Z,50.866982
2023-06-30T07:46:10.709Z,50.867008
2023-06-30T07:47:10.673Z,50.867027
2023-06-30T07:48:10.815Z,50.867058
2023-06-30T07:49:10.668Z,50.867031
2023-06-30T07:50:10.646Z,50.867035
2023-06-30T07:51:10.655Z,50.867012
2023-06-30T07:52:10.637Z,50.866962
2023-06-30T07:53:10.619Z,50.866924
2023-06-30T07:54:10.624Z,50.866978
2023-06-30T07:55:10.606Z,50.866955
2023-06-30T07:56:10.607Z,50.866962
2023-06-30T07:57:10.597Z,50.866959
2023-06-30T07:58:10.587Z,50.866943
2023-06-30T07:59:10.618Z,50.866844
2023-06-30T08:00:10.567Z,50.866779
2023-06-30T08:01:10.633Z,50.866772
2023-06-30T08:02:10.548Z,50.866802
2023-06-30T08:03:11.351Z,50.866753
2023-06-30T08:04:10.729Z,50.866692
2023-06-30T08:05:10.615Z,50.866692
2023-06-30T08:06:10.629Z,50.866711
2023-06-30T08:07:10.578Z,50.866711
2023-06-30T08:08:10.515Z,50.866756
2023-06-30T08:09:10.502Z,50.866768
2023-06-30T08:10:10.499Z,50.866726
2023-06-30T08:11:11.212Z,50.866734
2023-06-30T08:12:10.483Z,50.866737
2023-06-30T08:13:10.479Z,50.866714
2023-06-30T08:14:10.510Z,50.866714
2023-06-30T08:15:10.488Z,50.866749
2023-06-30T08:16:10.534Z,50.866756
2023-06-30T08:17:10.443Z,50.866749
2023-06-30T08:18:11.102Z,50.866718
2023-06-30T08:19:21.696Z,50.866726
2023-06-30T08:20:11.484Z,50.866737
2023-06-30T08:21:11.204Z,50.866730
2023-06-30T08:22:10.398Z,50.866753
2023-06-30T08:23:11.389Z,50.866787
2023-06-30T08:24:10.378Z,50.866722
2023-06-30T08:25:10.369Z,50.866718
2023-06-30T08:26:10.382Z,50.866795
2023-06-30T08:27:10.359Z,50.866821
2023-06-30T08:28:10.811Z,50.866817
2023-06-30T08:29:10.376Z,50.866951
2023-06-30T08:30:10.372Z,50.866798
2023-06-30T08:31:10.402Z,50.866810
2023-06-30T08:32:10.318Z,50.866779
2023-06-30T08:33:10.371Z,50.866802
2023-06-30T08:34:10.286Z,50.866749
2023-06-30T08:35:10.347Z,50.866680
2023-06-30T08:36:10.323Z,50.866680
2023-06-30T08:37:10.301Z,50.866711
2023-06-30T08:38:10.284Z,50.866756
2023-06-30T08:39:10.249Z,50.866627
2023-06-30T08:40:10.244Z,50.866619
2023-06-30T08:41:10.245Z,50.866680
2023-06-30T08:42:10.260Z,50.866695
2023-06-30T08:43:10.233Z,50.866711
2023-06-30T08:44:10.251Z,50.866734
2023-06-30T08:45:10.203Z,50.866726
2023-06-30T08:46:10.758Z,50.866722
2023-06-30T08:47:10.200Z,50.866753
2023-06-30T08:48:10.267Z,50.866684
2023-06-30T08:49:10.195Z,50.866791
2023-06-30T08:50:10.191Z,50.866684
2023-06-30T08:51:10.162Z,50.866737
2023-06-30T08:52:10.157Z,50.866657
2023-06-30T08:53:10.139Z,50.866669
2023-06-30T08:54:11.744Z,50.866703
2023-06-30T08:55:10.128Z,50.866699
2023-06-30T08:56:10.118Z,50.866783
2023-06-30T08:57:10.889Z,50.866714
2023-06-30T08:58:21.040Z,50.866699
2023-06-30T08:59:12.114Z,50.866692
2023-06-30T09:00:10.093Z,50.866711
2023-06-30T09:01:10.177Z,50.866768
2023-06-30T09:02:10.140Z,50.866703
2023-06-30T09:03:10.229Z,50.866707
2023-06-30T09:04:10.281Z,50.866684
2023-06-30T09:05:10.111Z,50.866673
2023-06-30T09:06:10.083Z,50.866669
2023-06-30T09:07:10.128Z,50.866673
2023-06-30T09:08:10.032Z,50.866684
2023-06-30T09:09:10.029Z,50.866734
2023-06-30T09:10:10.059Z,50.866692
2023-06-30T09:11:10.014Z,50.866734
2023-06-30T09:12:10.017Z,50.866707
2023-06-30T09:13:10.002Z,50.866676
2023-06-30T09:14:10.016Z,50.866688
2023-06-30T09:15:09.983Z,50.866714
2023-06-30T09:16:10.022Z,50.866722
2023-06-30T09:17:09.972Z,50.866680
2023-06-30T09:18:09.987Z,50.866760
2023-06-30T09:19:09.964Z,50.866840
2023-06-30T09:20:09.934Z,50.866833
2023-06-30T09:21:09.935Z,50.866863
2023-06-30T09:22:53.908Z,50.866947
2023-06-30T09:23:10.907Z,50.866936
2023-06-30T09:24:09.915Z,50.866993
2023-06-30T09:25:09.893Z,50.866886
2023-06-30T09:26:09.961Z,50.866924
2023-06-30T09:27:09.881Z,50.866947
2023-06-30T09:28:09.902Z,50.866886
2023-06-30T09:29:09.883Z,50.866940
2023-06-30T09:30:10.747Z,50.866901
2023-06-30T09:31:09.854Z,50.866890
2023-06-30T09:32:10.556Z,50.866936
2023-06-30T09:33:11.041Z,50.867062
2023-06-30T09:34:09.949Z,50.866955
2023-06-30T09:35:09.832Z,50.866932
2023-06-30T09:36:09.808Z,50.867008
2023-06-30T09:37:12.340Z,50.867027
2023-06-30T09:38:10.828Z,50.866947
2023-06-30T09:39:09.802Z,50.866894
2023-06-30T09:40:09.784Z,50.866840
2023-06-30T09:41:09.780Z,50.866802
2023-06-30T09:42:09.762Z,50.866810
2023-06-30T09:43:09.743Z,50.866837
2023-06-30T09:44:09.753Z,50.866821
2023-06-30T09:45:09.740Z,50.866829
2023-06-30T09:46:10.300Z,50.866798
2023-06-30T09:47:09.724Z,50.866798
2023-06-30T09:48:09.698Z,50.866791
2023-06-30T09:49:09.730Z,50.866779
2023-06-30T09:50:09.736Z,50.866776
2023-06-30T09:51:09.753Z,50.866791
2023-06-30T09:52:09.671Z,50.866783
2023-06-30T09:53:09.692Z,50.866810
2023-06-30T09:54:09.690Z,50.866798
2023-06-30T09:55:09.642Z,50.866825
2023-06-30T09:56:09.742Z,50.866806
2023-06-30T09:57:09.646Z,50.866795
2023-06-30T09:58:09.622Z,50.866791
2023-06-30T09:59:09.615Z,50.866776
2023-06-30T10:00:18.441Z,50.866783
2023-06-30T10:01:11.627Z,50.866810
2023-06-30T10:02:09.604Z,50.866821
2023-06-30T10:03:09.792Z,50.866840
2023-06-30T10:04:09.582Z,50.866798
2023-06-30T10:05:09.564Z,50.866810
2023-06-30T10:06:09.579Z,50.866795
2023-06-30T10:07:09.612Z,50.866772
2023-06-30T10:08:09.611Z,50.866829
2023-06-30T10:09:09.550Z,50.866852
2023-06-30T10:10:09.531Z,50.866890
2023-06-30T10:11:09.585Z,50.866848
2023-06-30T10:12:09.541Z,50.866875
2023-06-30T10:13:09.595Z,50.866867
2023-06-30T10:14:09.588Z,50.866802
2023-06-30T10:15:09.501Z,50.866817
2023-06-30T10:16:09.507Z,50.866833
2023-06-30T10:17:09.489Z,50.866856
2023-06-30T10:18:10.295Z,50.866840
2023-06-30T10:19:09.481Z,50.866814
2023-06-30T10:20:09.462Z,50.866863
2023-06-30T10:21:09.484Z,50.866875
2023-06-30T10:22:09.474Z,50.866844
2023-06-30T10:23:09.511Z,50.866844
2023-06-30T10:24:10.294Z,50.866829
2023-06-30T10:25:09.428Z,50.866867
2023-06-30T10:26:09.439Z,50.866833
2023-06-30T10:27:09.414Z,50.866817
2023-06-30T10:28:10.361Z,50.866844
2023-06-30T10:29:09.423Z,50.866814
2023-06-30T10:30:09.386Z,50.866810
2023-06-30T10:31:11.362Z,50.866837
2023-06-30T10:32:09.385Z,50.866817
2023-06-30T10:33:11.337Z,50.866802
2023-06-30T10:34:09.355Z,50.866772
2023-06-30T10:35:09.335Z,50.866791
2023-06-30T10:36:09.341Z,50.866795
2023-06-30T10:37:09.341Z,50.866802
2023-06-30T10:38:09.837Z,50.866726
2023-06-30T10:39:09.312Z,50.866806
2023-06-30T10:40:09.851Z,50.866798
2023-06-30T10:41:09.296Z,50.866798
2023-06-30T10:42:09.312Z,50.866741
2023-06-30T10:43:09.284Z,50.866714
2023-06-30T10:44:09.295Z,50.866688
2023-06-30T10:45:09.277Z,50.866695
2023-06-30T10:46:12.475Z,50.866730
2023-06-30T10:47:10.302Z,50.866650
2023-06-30T10:48:09.345Z,50.866749
2023-06-30T10:49:09.235Z,50.866859
2023-06-30T10:50:09.232Z,50.866993
2023-06-30T10:51:09.241Z,50.867039
2023-06-30T10:52:09.265Z,50.867218
2023-06-30T10:53:09.323Z,50.867023
2023-06-30T10:54:09.193Z,50.866936
2023-06-30T10:55:09.211Z,50.866791
2023-06-30T10:56:09.172Z,50.866673
2023-06-30T10:57:09.178Z,50.866657
2023-06-30T10:58:09.928Z,50.866402
2023-06-30T10:59:09.365Z,50.866501
2023-06-30T11:00:10.873Z,50.866436
2023-06-30T11:01:10.796Z,50.866268
2023-06-30T11:02:09.129Z,50.866665
2023-06-30T11:03:09.391Z,50.866665
2023-06-30T11:04:09.310Z,50.866650
2023-06-30T11:05:09.160Z,50.866592
2023-06-30T21:55:31.815Z,50.866970
2023-06-30T21:56:30.770Z,50.866665
2023-06-30T21:57:30.822Z,50.866707
2023-06-30T21:58:30.778Z,50.866833
2023-06-30T21:59:30.737Z,50.866707
2023-06-30T22:00:31.746Z,50.866703
2023-06-30T22:01:39.837Z,50.866737
2023-06-30T22:02:32.833Z,50.866676
2023-06-30T22:03:31.533Z,50.866749
2023-06-30T22:04:30.813Z,50.866726
2023-06-30T22:05:30.717Z,50.866787
2023-06-30T22:06:30.700Z,50.866795
2023-06-30T22:07:30.699Z,50.866829
2023-06-30T22:08:30.688Z,50.866817
2023-06-30T22:09:30.688Z,50.866749
2023-06-30T22:10:30.676Z,50.866779
2023-06-30T22:11:30.657Z,50.866741
2023-06-30T22:12:30.651Z,50.866722
2023-06-30T22:13:31.336Z,50.866688
2023-06-30T22:14:30.657Z,50.866726
2023-06-30T22:15:30.633Z,50.866753
2023-06-30T22:16:30.682Z,50.866783
2023-06-30T22:17:30.776Z,50.866852
2023-06-30T22:18:30.599Z,50.866814
2023-06-30T22:19:30.605Z,50.866730
2023-06-30T22:20:30.591Z,50.866726
2023-06-30T22:21:30.596Z,50.866741
2023-06-30T22:22:30.570Z,50.866783
2023-06-30T22:23:30.583Z,50.866859
2023-06-30T22:24:30.568Z,50.866833
2023-06-30T22:25:30.568Z,50.866768
2023-06-30T22:26:30.557Z,50.866825
2023-06-30T22:27:30.544Z,50.866924